sensor_id;sensor_type;location;lat;lon;timestamp;pressure;altitude;pressure_sealevel;temperature;humidity
57248;BME280;55809;46.618;10.764;2022-08-01T00:02:00;93168.19;;;19.96;51.58
57248;BME280;55809;46.618;10.764;2022-08-01T00:04:27;93168.31;;;19.83;52.28
57248;BME280;55809;46.618;10.764;2022-08-01T00:06:55;93168.63;;;19.85;52.11
57248;BME280;55809;46.618;10.764;2022-08-01T00:09:22;93170.28;;;19.83;52.40
57248;BME280;55809;46.618;10.764;2022-08-01T00:11:49;93158.53;;;19.73;52.81
57248;BME280;55809;46.618;10.764;2022-08-01T00:14:16;93160.34;;;19.67;53.31
57248;BME280;55809;46.618;10.764;2022-08-01T00:16:43;93164.63;;;19.68;52.86
57248;BME280;55809;46.618;10.764;2022-08-01T00:19:14;93137.13;;;19.50;53.29
57248;BME280;55809;46.618;10.764;2022-08-01T00:21:42;93159.22;;;19.55;53.58
57248;BME280;55809;46.618;10.764;2022-08-01T00:24:09;93135.75;;;19.45;52.83
57248;BME280;55809;46.618;10.764;2022-08-01T00:26:36;93162.56;;;19.59;52.99
57248;BME280;55809;46.618;10.764;2022-08-01T00:29:03;93159.78;;;19.50;52.98
57248;BME280;55809;46.618;10.764;2022-08-01T00:31:30;93166.91;;;19.48;53.37
57248;BME280;55809;46.618;10.764;2022-08-01T00:33:57;93137.53;;;19.39;52.57
57248;BME280;55809;46.618;10.764;2022-08-01T00:36:26;93164.50;;;19.50;53.71
57248;BME280;55809;46.618;10.764;2022-08-01T00:38:53;93156.38;;;19.37;53.45
57248;BME280;55809;46.618;10.764;2022-08-01T00:41:20;93164.59;;;19.37;53.53
57248;BME280;55809;46.618;10.764;2022-08-01T00:43:47;93163.50;;;19.34;53.61
57248;BME280;55809;46.618;10.764;2022-08-01T00:46:14;93158.22;;;19.40;53.15
57248;BME280;55809;46.618;10.764;2022-08-01T00:48:41;93159.72;;;19.32;53.28
57248;BME280;55809;46.618;10.764;2022-08-01T00:51:08;93160.78;;;19.34;53.33
57248;BME280;55809;46.618;10.764;2022-08-01T00:53:37;93166.38;;;19.31;53.43
57248;BME280;55809;46.618;10.764;2022-08-01T00:56:05;93158.16;;;19.31;52.96
57248;BME280;55809;46.618;10.764;2022-08-01T00:58:33;93160.16;;;19.30;52.69
57248;BME280;55809;46.618;10.764;2022-08-01T01:01:00;93156.66;;;19.30;52.41
57248;BME280;55809;46.618;10.764;2022-08-01T01:03:27;93124.16;;;19.10;52.39
57248;BME280;55809;46.618;10.764;2022-08-01T01:06:05;93155.91;;;19.29;52.72
57248;BME280;55809;46.618;10.764;2022-08-01T01:08:40;93162.75;;;19.34;52.65
57248;BME280;55809;46.618;10.764;2022-08-01T01:11:12;93158.94;;;19.31;52.67
57248;BME280;55809;46.618;10.764;2022-08-01T01:13:43;93165.94;;;19.32;52.42
57248;BME280;55809;46.618;10.764;2022-08-01T01:16:14;93161.22;;;19.33;52.50
57248;BME280;55809;46.618;10.764;2022-08-01T01:18:45;93159.97;;;19.25;52.44
57248;BME280;55809;46.618;10.764;2022-08-01T01:21:47;93162.47;;;19.41;51.75
57248;BME280;55809;46.618;10.764;2022-08-01T01:24:28;93135.47;;;19.21;51.76
57248;BME280;55809;46.618;10.764;2022-08-01T01:27:05;93150.63;;;19.35;51.94
57248;BME280;55809;46.618;10.764;2022-08-01T01:29:39;93165.06;;;19.35;52.57
57248;BME280;55809;46.618;10.764;2022-08-01T01:32:13;93159.25;;;19.33;52.11
57248;BME280;55809;46.618;10.764;2022-08-01T01:34:43;93161.19;;;19.24;52.58
57248;BME280;55809;46.618;10.764;2022-08-01T01:37:15;93117.56;;;18.98;52.40
57248;BME280;55809;46.618;10.764;2022-08-01T01:39:46;93166.78;;;19.20;53.02
57248;BME280;55809;46.618;10.764;2022-08-01T01:42:14;93159.47;;;19.17;53.15
57248;BME280;55809;46.618;10.764;2022-08-01T01:44:45;93167.34;;;19.15;53.70
57248;BME280;55809;46.618;10.764;2022-08-01T01:47:14;93159.59;;;19.13;52.46
57248;BME280;55809;46.618;10.764;2022-08-01T01:49:44;93161.13;;;19.14;53.05
57248;BME280;55809;46.618;10.764;2022-08-01T01:52:14;93165.41;;;19.15;52.63
57248;BME280;55809;46.618;10.764;2022-08-01T01:54:47;93162.47;;;19.10;52.82
57248;BME280;55809;46.618;10.764;2022-08-01T01:57:16;93158.53;;;19.11;52.75
57248;BME280;55809;46.618;10.764;2022-08-01T01:59:47;93169.28;;;19.05;53.41
57248;BME280;55809;46.618;10.764;2022-08-01T02:02:17;93156.25;;;18.87;53.70
57248;BME280;55809;46.618;10.764;2022-08-01T02:04:46;93162.03;;;18.89;54.30
57248;BME280;55809;46.618;10.764;2022-08-01T02:07:17;93170.38;;;18.86;54.33
57248;BME280;55809;46.618;10.764;2022-08-01T02:09:46;93152.69;;;18.78;53.40
57248;BME280;55809;46.618;10.764;2022-08-01T02:12:15;93178.19;;;18.96;53.62
57248;BME280;55809;46.618;10.764;2022-08-01T02:14:46;93176.78;;;18.92;53.52
57248;BME280;55809;46.618;10.764;2022-08-01T02:17:17;93167.81;;;18.91;53.40
57248;BME280;55809;46.618;10.764;2022-08-01T02:19:45;93171.00;;;18.90;53.50
57248;BME280;55809;46.618;10.764;2022-08-01T02:22:16;93174.50;;;18.90;53.30
57248;BME280;55809;46.618;10.764;2022-08-01T02:24:50;93168.28;;;18.90;53.92
57248;BME280;55809;46.618;10.764;2022-08-01T02:27:24;93166.16;;;18.94;53.60
57248;BME280;55809;46.618;10.764;2022-08-01T02:29:58;93168.28;;;18.90;53.66
57248;BME280;55809;46.618;10.764;2022-08-01T02:32:30;93167.94;;;18.88;53.98
57248;BME280;55809;46.618;10.764;2022-08-01T02:35:00;93167.94;;;18.88;54.61
57248;BME280;55809;46.618;10.764;2022-08-01T02:37:31;93168.84;;;18.85;54.15
57248;BME280;55809;46.618;10.764;2022-08-01T02:40:00;93161.22;;;18.80;54.19
57248;BME280;55809;46.618;10.764;2022-08-01T02:42:28;93165.13;;;18.79;54.38
57248;BME280;55809;46.618;10.764;2022-08-01T02:44:57;93162.09;;;18.77;55.18
57248;BME280;55809;46.618;10.764;2022-08-01T02:47:26;93168.00;;;18.75;55.62
57248;BME280;55809;46.618;10.764;2022-08-01T02:49:55;93170.84;;;18.71;55.85
57248;BME280;55809;46.618;10.764;2022-08-01T02:52:24;93174.47;;;18.68;55.74
57248;BME280;55809;46.618;10.764;2022-08-01T02:54:55;93176.00;;;18.69;55.77
57248;BME280;55809;46.618;10.764;2022-08-01T02:57:22;93174.91;;;18.67;56.13
57248;BME280;55809;46.618;10.764;2022-08-01T02:59:51;93175.34;;;18.65;56.88
57248;BME280;55809;46.618;10.764;2022-08-01T03:02:23;93173.69;;;18.68;56.61
57248;BME280;55809;46.618;10.764;2022-08-01T03:04:50;93179.63;;;18.66;56.14
57248;BME280;55809;46.618;10.764;2022-08-01T03:07:18;93178.06;;;18.65;56.60
57248;BME280;55809;46.618;10.764;2022-08-01T03:09:47;93181.25;;;18.64;56.86
57248;BME280;55809;46.618;10.764;2022-08-01T03:12:19;93181.06;;;18.58;57.24
57248;BME280;55809;46.618;10.764;2022-08-01T03:14:48;93170.88;;;18.59;57.30
57248;BME280;55809;46.618;10.764;2022-08-01T03:17:18;93179.53;;;18.57;57.81
57248;BME280;55809;46.618;10.764;2022-08-01T03:19:48;93180.88;;;18.52;57.02
57248;BME280;55809;46.618;10.764;2022-08-01T03:22:16;93175.72;;;18.55;56.89
57248;BME280;55809;46.618;10.764;2022-08-01T03:24:47;93186.22;;;18.56;56.13
57248;BME280;55809;46.618;10.764;2022-08-01T03:27:15;93183.16;;;18.54;56.12
57248;BME280;55809;46.618;10.764;2022-08-01T03:29:45;93179.97;;;18.56;55.78
57248;BME280;55809;46.618;10.764;2022-08-01T03:32:13;93175.97;;;18.47;56.24
57248;BME280;55809;46.618;10.764;2022-08-01T03:34:43;93185.69;;;18.48;56.16
57248;BME280;55809;46.618;10.764;2022-08-01T03:37:20;93187.66;;;18.48;56.18
57248;BME280;55809;46.618;10.764;2022-08-01T03:39:54;93192.56;;;18.53;56.98
57248;BME280;55809;46.618;10.764;2022-08-01T03:42:25;93182.53;;;18.50;57.60
57248;BME280;55809;46.618;10.764;2022-08-01T03:44:59;93192.13;;;18.55;57.21
57248;BME280;55809;46.618;10.764;2022-08-01T03:47:31;93180.66;;;18.47;57.38
57248;BME280;55809;46.618;10.764;2022-08-01T03:50:02;93184.38;;;18.53;57.98
57248;BME280;55809;46.618;10.764;2022-08-01T03:52:32;93184.81;;;18.51;58.05
57248;BME280;55809;46.618;10.764;2022-08-01T03:55:05;93191.16;;;18.48;57.87
57248;BME280;55809;46.618;10.764;2022-08-01T03:57:34;93193.47;;;18.50;58.41
57248;BME280;55809;46.618;10.764;2022-08-01T04:00:03;93152.31;;;18.19;59.40
57248;BME280;55809;46.618;10.764;2022-08-01T04:02:33;93186.50;;;18.36;58.99
57248;BME280;55809;46.618;10.764;2022-08-01T04:05:00;93177.59;;;18.23;59.62
57248;BME280;55809;46.618;10.764;2022-08-01T04:07:31;93190.91;;;18.21;59.57
57248;BME280;55809;46.618;10.764;2022-08-01T04:10:01;93183.91;;;18.20;59.79
57248;BME280;55809;46.618;10.764;2022-08-01T04:12:28;93188.59;;;18.19;60.24
57248;BME280;55809;46.618;10.764;2022-08-01T04:14:55;93144.97;;;17.94;60.53
57248;BME280;55809;46.618;10.764;2022-08-01T04:17:22;93186.72;;;18.29;59.70
57248;BME280;55809;46.618;10.764;2022-08-01T04:19:49;93181.25;;;18.29;59.33
57248;BME280;55809;46.618;10.764;2022-08-01T04:22:16;93178.84;;;18.31;59.02
57248;BME280;55809;46.618;10.764;2022-08-01T04:24:47;93179.41;;;18.26;59.39
57248;BME280;55809;46.618;10.764;2022-08-01T04:27:21;93183.81;;;18.23;60.07
57248;BME280;55809;46.618;10.764;2022-08-01T04:29:49;93184.34;;;18.18;60.03
57248;BME280;55809;46.618;10.764;2022-08-01T04:32:20;93190.16;;;18.08;59.94
57248;BME280;55809;46.618;10.764;2022-08-01T04:34:51;93185.06;;;17.97;59.96
57248;BME280;55809;46.618;10.764;2022-08-01T04:37:22;93185.47;;;17.95;59.56
57248;BME280;55809;46.618;10.764;2022-08-01T04:39:54;93199.88;;;17.96;59.78
57248;BME280;55809;46.618;10.764;2022-08-01T04:42:21;93161.38;;;17.81;59.45
57248;BME280;55809;46.618;10.764;2022-08-01T04:44:48;93192.03;;;17.98;59.31
57248;BME280;55809;46.618;10.764;2022-08-01T04:47:16;93190.81;;;17.99;59.22
57248;BME280;55809;46.618;10.764;2022-08-01T04:49:44;93193.00;;;18.04;58.73
57248;BME280;55809;46.618;10.764;2022-08-01T04:52:11;93194.66;;;18.01;58.73
57248;BME280;55809;46.618;10.764;2022-08-01T04:54:38;93201.31;;;18.13;58.60
57248;BME280;55809;46.618;10.764;2022-08-01T04:57:07;93195.25;;;18.31;58.30
57248;BME280;55809;46.618;10.764;2022-08-01T04:59:36;93167.84;;;18.22;57.72
57248;BME280;55809;46.618;10.764;2022-08-01T05:02:08;93196.38;;;18.56;58.14
57248;BME280;55809;46.618;10.764;2022-08-01T05:04:37;93195.91;;;18.70;57.71
57248;BME280;55809;46.618;10.764;2022-08-01T05:07:05;93198.50;;;18.86;56.93
57248;BME280;55809;46.618;10.764;2022-08-01T05:09:33;93189.00;;;19.00;57.15
57248;BME280;55809;46.618;10.764;2022-08-01T05:12:03;93173.22;;;19.04;56.91
57248;BME280;55809;46.618;10.764;2022-08-01T05:14:32;93191.41;;;19.20;56.28
57248;BME280;55809;46.618;10.764;2022-08-01T05:17:01;93194.97;;;19.30;55.56
57248;BME280;55809;46.618;10.764;2022-08-01T05:19:29;93192.91;;;19.43;54.95
57248;BME280;55809;46.618;10.764;2022-08-01T05:21:57;93192.78;;;19.47;55.68
57248;BME280;55809;46.618;10.764;2022-08-01T05:24:26;93192.06;;;19.55;54.74
57248;BME280;55809;46.618;10.764;2022-08-01T05:26:53;93184.56;;;19.68;54.38
57248;BME280;55809;46.618;10.764;2022-08-01T05:29:21;93186.72;;;19.83;54.92
57248;BME280;55809;46.618;10.764;2022-08-01T05:31:50;93171.50;;;19.82;55.33
57248;BME280;55809;46.618;10.764;2022-08-01T05:34:18;93191.69;;;20.15;53.94
57248;BME280;55809;46.618;10.764;2022-08-01T05:36:46;93195.97;;;20.26;53.19
57248;BME280;55809;46.618;10.764;2022-08-01T05:39:15;93187.81;;;20.44;52.94
57248;BME280;55809;46.618;10.764;2022-08-01T05:41:46;93165.41;;;20.46;53.15
57248;BME280;55809;46.618;10.764;2022-08-01T05:44:13;93172.28;;;20.69;52.42
57248;BME280;55809;46.618;10.764;2022-08-01T05:46:40;93197.13;;;21.02;51.96
57248;BME280;55809;46.618;10.764;2022-08-01T05:49:09;93194.69;;;21.22;51.10
57248;BME280;55809;46.618;10.764;2022-08-01T05:51:36;93172.09;;;21.27;50.40
57248;BME280;55809;46.618;10.764;2022-08-01T05:54:03;93195.38;;;21.60;50.05
57248;BME280;55809;46.618;10.764;2022-08-01T05:56:30;93192.69;;;21.84;49.28
57248;BME280;55809;46.618;10.764;2022-08-01T05:58:57;93185.72;;;22.07;48.36
57248;BME280;55809;46.618;10.764;2022-08-01T06:01:24;93192.69;;;22.50;46.49
57248;BME280;55809;46.618;10.764;2022-08-01T06:03:51;93186.25;;;22.77;46.98
57248;BME280;55809;46.618;10.764;2022-08-01T06:06:21;93186.81;;;23.05;47.35
57248;BME280;55809;46.618;10.764;2022-08-01T06:08:48;93195.00;;;23.29;46.78
57248;BME280;55809;46.618;10.764;2022-08-01T06:11:17;93158.72;;;23.46;45.19
57248;BME280;55809;46.618;10.764;2022-08-01T06:13:44;93182.25;;;23.91;44.36
57248;BME280;55809;46.618;10.764;2022-08-01T06:16:11;93187.63;;;24.15;44.49
57248;BME280;55809;46.618;10.764;2022-08-01T06:18:38;93191.75;;;24.40;43.42
57248;BME280;55809;46.618;10.764;2022-08-01T06:21:05;93194.09;;;24.62;43.35
57248;BME280;55809;46.618;10.764;2022-08-01T06:23:33;93180.56;;;24.85;43.44
57248;BME280;55809;46.618;10.764;2022-08-01T06:26:00;93182.22;;;25.17;42.82
57248;BME280;55809;46.618;10.764;2022-08-01T06:28:28;93166.69;;;25.25;42.53
57248;BME280;55809;46.618;10.764;2022-08-01T06:30:55;93194.72;;;25.65;41.62
57248;BME280;55809;46.618;10.764;2022-08-01T06:33:24;93185.75;;;25.76;42.06
57248;BME280;55809;46.618;10.764;2022-08-01T06:35:51;93193.72;;;25.94;42.20
57248;BME280;55809;46.618;10.764;2022-08-01T06:38:17;93169.34;;;25.98;43.36
57248;BME280;55809;46.618;10.764;2022-08-01T06:40:46;93181.34;;;26.21;42.78
57248;BME280;55809;46.618;10.764;2022-08-01T06:43:13;93149.00;;;26.01;42.58
57248;BME280;55809;46.618;10.764;2022-08-01T06:45:41;93183.34;;;26.20;42.34
57248;BME280;55809;46.618;10.764;2022-08-01T06:48:07;93183.97;;;26.36;42.82
57248;BME280;55809;46.618;10.764;2022-08-01T06:50:35;93186.09;;;26.52;42.73
57248;BME280;55809;46.618;10.764;2022-08-01T06:53:02;93176.84;;;26.66;41.98
57248;BME280;55809;46.618;10.764;2022-08-01T06:55:29;93172.03;;;26.61;42.25
57248;BME280;55809;46.618;10.764;2022-08-01T06:57:58;93173.59;;;26.74;42.47
57248;BME280;55809;46.618;10.764;2022-08-01T07:00:26;93154.00;;;26.83;42.29
57248;BME280;55809;46.618;10.764;2022-08-01T07:02:54;93164.09;;;26.86;41.88
57248;BME280;55809;46.618;10.764;2022-08-01T07:05:22;93165.63;;;26.98;41.22
57248;BME280;55809;46.618;10.764;2022-08-01T07:07:50;93164.63;;;27.01;39.71
57248;BME280;55809;46.618;10.764;2022-08-01T07:10:17;93161.16;;;27.18;39.55
57248;BME280;55809;46.618;10.764;2022-08-01T07:12:44;93164.69;;;27.12;39.83
57248;BME280;55809;46.618;10.764;2022-08-01T07:15:12;93134.75;;;27.28;39.22
57248;BME280;55809;46.618;10.764;2022-08-01T07:17:40;93148.91;;;27.69;38.47
57248;BME280;55809;46.618;10.764;2022-08-01T07:20:09;93149.94;;;28.17;38.73
57248;BME280;55809;46.618;10.764;2022-08-01T07:22:36;93150.16;;;28.41;37.58
57248;BME280;55809;46.618;10.764;2022-08-01T07:25:04;93149.06;;;28.61;36.84
57248;BME280;55809;46.618;10.764;2022-08-01T07:27:32;93154.09;;;28.68;36.46
57248;BME280;55809;46.618;10.764;2022-08-01T07:29:59;93149.56;;;28.71;35.56
57248;BME280;55809;46.618;10.764;2022-08-01T07:32:28;93123.72;;;28.87;36.10
57248;BME280;55809;46.618;10.764;2022-08-01T07:34:56;93144.41;;;28.92;35.82
57248;BME280;55809;46.618;10.764;2022-08-01T07:37:23;93127.66;;;29.09;36.12
57248;BME280;55809;46.618;10.764;2022-08-01T07:39:50;93133.09;;;29.31;35.94
57248;BME280;55809;46.618;10.764;2022-08-01T07:42:17;93133.31;;;29.39;35.75
57248;BME280;55809;46.618;10.764;2022-08-01T07:44:44;93135.31;;;29.44;36.39
57248;BME280;55809;46.618;10.764;2022-08-01T07:47:11;93128.47;;;29.04;36.18
57248;BME280;55809;46.618;10.764;2022-08-01T07:49:40;93127.59;;;28.62;39.10
57248;BME280;55809;46.618;10.764;2022-08-01T07:52:08;93125.75;;;28.81;38.59
57248;BME280;55809;46.618;10.764;2022-08-01T07:54:35;93112.59;;;28.87;37.29
57248;BME280;55809;46.618;10.764;2022-08-01T07:57:03;93124.31;;;29.21;37.70
57248;BME280;55809;46.618;10.764;2022-08-01T07:59:30;93118.03;;;29.57;37.23
57248;BME280;55809;46.618;10.764;2022-08-01T08:01:57;93123.03;;;29.94;35.73
57248;BME280;55809;46.618;10.764;2022-08-01T08:04:25;93118.53;;;30.21;35.08
57248;BME280;55809;46.618;10.764;2022-08-01T08:06:53;93116.50;;;30.46;34.94
57248;BME280;55809;46.618;10.764;2022-08-01T08:09:21;93111.38;;;30.50;34.82
57248;BME280;55809;46.618;10.764;2022-08-01T08:11:48;93115.44;;;30.49;34.21
57248;BME280;55809;46.618;10.764;2022-08-01T08:14:16;93112.38;;;30.53;34.74
57248;BME280;55809;46.618;10.764;2022-08-01T08:16:44;93116.66;;;30.78;34.25
57248;BME280;55809;46.618;10.764;2022-08-01T08:19:12;93114.88;;;30.81;35.07
57248;BME280;55809;46.618;10.764;2022-08-01T08:21:39;93103.81;;;30.94;34.47
57248;BME280;55809;46.618;10.764;2022-08-01T08:24:10;93104.28;;;30.74;34.18
57248;BME280;55809;46.618;10.764;2022-08-01T08:26:51;93100.72;;;31.17;33.70
57248;BME280;55809;46.618;10.764;2022-08-01T08:29:20;93094.09;;;31.20;33.62
57248;BME280;55809;46.618;10.764;2022-08-01T08:31:47;93085.91;;;31.22;33.62
57248;BME280;55809;46.618;10.764;2022-08-01T08:34:14;93092.19;;;31.28;33.17
57248;BME280;55809;46.618;10.764;2022-08-01T08:36:42;93102.28;;;31.31;34.13
57248;BME280;55809;46.618;10.764;2022-08-01T08:39:10;93083.44;;;31.18;34.26
57248;BME280;55809;46.618;10.764;2022-08-01T08:41:37;93103.72;;;31.57;33.16
57248;BME280;55809;46.618;10.764;2022-08-01T08:44:05;93093.25;;;31.44;34.65
57248;BME280;55809;46.618;10.764;2022-08-01T08:46:33;93082.31;;;31.46;34.17
57248;BME280;55809;46.618;10.764;2022-08-01T08:49:02;93091.78;;;31.56;32.94
57248;BME280;55809;46.618;10.764;2022-08-01T08:51:30;93100.47;;;31.52;34.68
57248;BME280;55809;46.618;10.764;2022-08-01T08:53:58;93081.09;;;31.73;32.86
57248;BME280;55809;46.618;10.764;2022-08-01T08:56:28;93086.47;;;31.71;35.09
57248;BME280;55809;46.618;10.764;2022-08-01T08:58:59;93082.59;;;31.42;32.57
57248;BME280;55809;46.618;10.764;2022-08-01T09:01:26;93080.34;;;31.41;33.31
57248;BME280;55809;46.618;10.764;2022-08-01T09:03:53;93076.75;;;31.46;35.28
57248;BME280;55809;46.618;10.764;2022-08-01T09:06:20;93074.75;;;31.60;33.92
57248;BME280;55809;46.618;10.764;2022-08-01T09:08:48;93080.34;;;31.41;33.28
57248;BME280;55809;46.618;10.764;2022-08-01T09:11:15;93069.63;;;31.26;33.94
57248;BME280;55809;46.618;10.764;2022-08-01T09:14:01;93068.88;;;31.44;35.07
57248;BME280;55809;46.618;10.764;2022-08-01T09:16:29;93072.91;;;31.62;34.98
57248;BME280;55809;46.618;10.764;2022-08-01T09:19:07;93072.31;;;31.69;34.87
57248;BME280;55809;46.618;10.764;2022-08-01T09:21:34;93067.81;;;31.47;34.95
57248;BME280;55809;46.618;10.764;2022-08-01T09:24:01;93073.91;;;31.78;35.88
57248;BME280;55809;46.618;10.764;2022-08-01T09:26:32;93026.31;;;31.57;33.77
57248;BME280;55809;46.618;10.764;2022-08-01T09:29:04;93064.09;;;31.90;34.12
57248;BME280;55809;46.618;10.764;2022-08-01T09:31:40;93053.31;;;31.81;33.61
57248;BME280;55809;46.618;10.764;2022-08-01T09:34:07;93051.78;;;32.12;34.18
57248;BME280;55809;46.618;10.764;2022-08-01T09:36:48;93053.84;;;32.12;33.80
57248;BME280;55809;46.618;10.764;2022-08-01T09:39:18;93049.72;;;31.99;31.88
57248;BME280;55809;46.618;10.764;2022-08-01T09:41:46;93050.06;;;31.96;33.17
57248;BME280;55809;46.618;10.764;2022-08-01T09:44:17;93049.75;;;32.13;34.30
57248;BME280;55809;46.618;10.764;2022-08-01T09:46:54;93052.22;;;32.16;31.87
57248;BME280;55809;46.618;10.764;2022-08-01T09:49:30;93037.59;;;32.37;34.15
57248;BME280;55809;46.618;10.764;2022-08-01T09:51:58;93039.31;;;32.40;33.76
57248;BME280;55809;46.618;10.764;2022-08-01T09:54:31;93025.25;;;32.19;34.28
57248;BME280;55809;46.618;10.764;2022-08-01T09:57:14;93027.31;;;32.18;33.90
57248;BME280;55809;46.618;10.764;2022-08-01T09:59:45;93035.88;;;32.20;34.42
57248;BME280;55809;46.618;10.764;2022-08-01T10:02:14;93025.91;;;32.12;33.85
57248;BME280;55809;46.618;10.764;2022-08-01T10:04:51;93020.19;;;32.31;31.97
57248;BME280;55809;46.618;10.764;2022-08-01T10:07:19;93014.94;;;32.27;32.96
57248;BME280;55809;46.618;10.764;2022-08-01T10:09:47;93000.53;;;32.23;34.22
57248;BME280;55809;46.618;10.764;2022-08-01T10:12:17;93020.50;;;32.27;32.54
57248;BME280;55809;46.618;10.764;2022-08-01T10:14:48;93017.63;;;32.19;32.72
57248;BME280;55809;46.618;10.764;2022-08-01T10:17:17;93012.69;;;32.12;35.43
57248;BME280;55809;46.618;10.764;2022-08-01T10:19:44;93013.09;;;32.03;34.53
57248;BME280;55809;46.618;10.764;2022-08-01T10:22:13;93002.69;;;32.17;34.37
57248;BME280;55809;46.618;10.764;2022-08-01T10:24:43;92997.41;;;32.53;35.41
57248;BME280;55809;46.618;10.764;2022-08-01T10:27:14;92994.72;;;32.47;33.53
57248;BME280;55809;46.618;10.764;2022-08-01T10:29:46;92983.25;;;32.51;35.08
57248;BME280;55809;46.618;10.764;2022-08-01T10:32:16;92968.41;;;32.43;34.32
57248;BME280;55809;46.618;10.764;2022-08-01T10:34:44;92963.69;;;32.51;33.74
57248;BME280;55809;46.618;10.764;2022-08-01T10:37:12;92955.19;;;32.30;33.68
57248;BME280;55809;46.618;10.764;2022-08-01T10:39:40;92955.84;;;32.23;34.18
57248;BME280;55809;46.618;10.764;2022-08-01T10:42:10;92953.06;;;32.10;33.83
57248;BME280;55809;46.618;10.764;2022-08-01T10:44:38;92960.47;;;32.07;32.77
57248;BME280;55809;46.618;10.764;2022-08-01T10:47:09;92957.16;;;32.09;33.09
57248;BME280;55809;46.618;10.764;2022-08-01T10:49:43;92957.34;;;32.24;34.76
57248;BME280;55809;46.618;10.764;2022-08-01T10:52:15;92947.03;;;32.32;34.80
57248;BME280;55809;46.618;10.764;2022-08-01T10:54:43;92938.69;;;32.19;33.08
57248;BME280;55809;46.618;10.764;2022-08-01T10:57:10;92927.59;;;32.13;33.48
57248;BME280;55809;46.618;10.764;2022-08-01T10:59:48;92936.59;;;32.33;35.38
57248;BME280;55809;46.618;10.764;2022-08-01T11:02:26;92916.94;;;32.38;33.28
57248;BME280;55809;46.618;10.764;2022-08-01T11:04:58;92906.56;;;32.12;32.68
57248;BME280;55809;46.618;10.764;2022-08-01T11:07:39;92919.31;;;32.21;33.26
57248;BME280;55809;46.618;10.764;2022-08-01T11:10:16;92916.59;;;32.42;34.13
57248;BME280;55809;46.618;10.764;2022-08-01T11:12:45;92915.56;;;32.32;34.71
57248;BME280;55809;46.618;10.764;2022-08-01T11:15:20;92914.47;;;32.21;34.25
57248;BME280;55809;46.618;10.764;2022-08-01T11:17:54;92905.91;;;32.19;33.23
57248;BME280;55809;46.618;10.764;2022-08-01T11:20:24;92903.63;;;32.18;32.31
57248;BME280;55809;46.618;10.764;2022-08-01T11:23:15;92900.22;;;32.12;32.23
57248;BME280;55809;46.618;10.764;2022-08-01T11:26:07;92895.59;;;31.74;35.07
57248;BME280;55809;46.618;10.764;2022-08-01T11:28:35;92892.53;;;31.19;34.66
57248;BME280;55809;46.618;10.764;2022-08-01T11:31:25;92892.72;;;31.08;35.49
57248;BME280;55809;46.618;10.764;2022-08-01T11:33:52;92883.69;;;31.02;34.28
57248;BME280;55809;46.618;10.764;2022-08-01T11:36:21;92891.31;;;31.01;34.12
57248;BME280;55809;46.618;10.764;2022-08-01T11:38:49;92889.84;;;31.14;34.60
57248;BME280;55809;46.618;10.764;2022-08-01T11:41:36;92870.53;;;31.16;35.61
57248;BME280;55809;46.618;10.764;2022-08-01T11:44:04;92876.44;;;31.12;34.58
57248;BME280;55809;46.618;10.764;2022-08-01T11:46:49;92853.66;;;30.95;34.46
57248;BME280;55809;46.618;10.764;2022-08-01T11:49:43;92867.31;;;30.47;33.98
57248;BME280;55809;46.618;10.764;2022-08-01T11:52:14;92863.56;;;30.26;34.81
57248;BME280;55809;46.618;10.764;2022-08-01T11:54:43;92858.06;;;30.20;34.29
57248;BME280;55809;46.618;10.764;2022-08-01T11:57:13;92860.44;;;30.10;34.13
57248;BME280;55809;46.618;10.764;2022-08-01T11:59:42;92813.97;;;29.67;33.92
57248;BME280;55809;46.618;10.764;2022-08-01T12:02:17;92847.44;;;30.00;34.66
57248;BME280;55809;46.618;10.764;2022-08-01T12:04:49;92836.31;;;30.00;34.43
57248;BME280;55809;46.618;10.764;2022-08-01T12:07:18;92828.44;;;29.85;34.83
57248;BME280;55809;46.618;10.764;2022-08-01T12:09:46;92848.50;;;29.53;33.28
57248;BME280;55809;46.618;10.764;2022-08-01T12:12:17;92841.50;;;29.47;36.36
57248;BME280;55809;46.618;10.764;2022-08-01T12:14:45;92810.06;;;29.33;37.78
57248;BME280;55809;46.618;10.764;2022-08-01T12:17:20;92814.00;;;29.43;32.95
57248;BME280;55809;46.618;10.764;2022-08-01T12:19:54;92834.22;;;29.43;32.11
57248;BME280;55809;46.618;10.764;2022-08-01T12:22:23;92830.53;;;29.35;33.35
57248;BME280;55809;46.618;10.764;2022-08-01T12:24:52;92824.91;;;29.16;33.08
57248;BME280;55809;46.618;10.764;2022-08-01T12:27:27;92821.53;;;28.99;32.32
57248;BME280;55809;46.618;10.764;2022-08-01T12:29:55;92815.56;;;28.89;31.12
57248;BME280;55809;46.618;10.764;2022-08-01T12:32:24;92826.38;;;28.93;31.89
57248;BME280;55809;46.618;10.764;2022-08-01T12:34:53;92816.22;;;29.01;35.40
57248;BME280;55809;46.618;10.764;2022-08-01T12:37:23;92804.91;;;28.93;30.87
57248;BME280;55809;46.618;10.764;2022-08-01T12:39:50;92816.63;;;29.11;33.54
57248;BME280;55809;46.618;10.764;2022-08-01T12:42:17;92808.88;;;28.98;34.01
57248;BME280;55809;46.618;10.764;2022-08-01T12:44:47;92813.81;;;28.86;31.56
57248;BME280;55809;46.618;10.764;2022-08-01T12:47:17;92814.50;;;28.92;31.49
57248;BME280;55809;46.618;10.764;2022-08-01T12:49:47;92809.28;;;28.83;30.52
57248;BME280;55809;46.618;10.764;2022-08-01T12:52:15;92817.13;;;28.79;32.13
57248;BME280;55809;46.618;10.764;2022-08-01T12:55:03;92812.34;;;28.80;30.86
57248;BME280;55809;46.618;10.764;2022-08-01T12:57:31;92787.56;;;28.57;31.78
57248;BME280;55809;46.618;10.764;2022-08-01T13:00:06;92801.78;;;28.72;32.19
57248;BME280;55809;46.618;10.764;2022-08-01T13:02:33;92799.78;;;28.73;31.00
57248;BME280;55809;46.618;10.764;2022-08-01T13:05:00;92801.53;;;28.76;31.86